x

Long Island - 30 Nm South Of Islip, Ny (44025) Wave Buoy

9:50pm - Fri 14th Dec 2018 All times are EST. -5 hours from GMT.

  • Sig Wave height 3.9ft
  • Swell Direction
  • Peak Period 7s
  • Average Period 5s
  • Wind
    9mph, 11mph gusts
  • Sea Temp 48°f
  • Air Temp 51°f
  • Sea Pressure 1025.7mb
  • Long Island - 30 Nm South Of Islip, Ny
  • Long Island - 30 Nm South Of Islip, Ny

More Historic Weather Station data

Upgrade to MSW Pro to gain access to the past 30 days of data for over 8000 Wavebouys and Weather Stations around the globe.

Join

Comparision Forecast

View Surf forecast
   
Fri 12/14 9:50pm 4ft 7s 5s 9 11 mph 1025.7mb 48f 51f
8:50pm 3.5ft 7s 5s 11 11 mph 1026.4mb 48f 50f
7:50pm 3.5ft 7s 6s 7 9 mph 1026.8mb 48f 50f
6:50pm 3.5ft 7s 5s 7 7 mph 1027.7mb 48f 50f
5:50pm 3.5ft 7s 5s 7 9 mph 1027.7mb 48f 50f
4:50pm 4ft 6s 5s 7 9 mph 1028.3mb 48f 50f
3:50pm 4ft 7s 5s 4 4 mph 1028.8mb 49f 50f
2:50pm 4ft 6s 5s 9 9 mph 1028.4mb 49f 50f
1:50pm 4.5ft 6s 5s 9 11 mph 1028.6mb 49f 50f
12:50pm 4.5ft 6s 5s 11 13 mph 1028.6mb 49f 50f
11:50am 4.5ft 6s 5s 13 16 mph 1029.9mb 49f 51f
10:50am 5ft 6s 5s 11 16 mph 1031.3mb 49f 50f
9:50am 5ft 6s 5s 13 18 mph 1032.2mb 49f 50f
8:50am 5ft 6s 5s 16 18 mph 1032.2mb 48f 49f
7:50am 5ft 6s 5s 20 22 mph 1031.4mb 48f 49f
6:50am 4.5ft 7s 5s 18 22 mph 1031.2mb 48f 48f
5:50am 5ft 6s 5s 18 20 mph 1031mb 48f 48f
4:50am 5ft 6s 5s 20 25 mph 1030.6mb 48f 48f
3:50am 5.5ft 6s 5s 20 22 mph 1031.3mb 48f 48f
2:50am 5ft 6s 5s 22 25 mph 1031.1mb 48f 48f
1:50am 5ft 6s 5s 20 25 mph 1031.4mb 48f 48f
12:50am 5ft 6s 5s 18 22 mph 1031.5mb 48f 48f
Thu 12/13 11:50pm 5ft 6s 5s 18 22 mph 1031.6mb 48f 48f
10:50pm 6ft 6s 5s 20 22 mph 1031.4mb 48f 48f
9:50pm 5ft 6s 5s 18 22 mph 1031.3mb 48f 48f
8:50pm 5ft 5s 5s 20 25 mph 1031.2mb 48f 48f
7:50pm 4.5ft 5s 5s 20 25 mph 1030.6mb 48f 48f
6:50pm 4.5ft 5s 5s 18 20 mph 1030.5mb 48f 48f
5:50pm 4.5ft 5s 4s 18 22 mph 1030.5mb 48f 48f
4:50pm 4.5ft 5s 5s 13 18 mph 1030.5mb 48f 47f
3:50pm 4.5ft 5s 5s 18 20 mph 1030mb 48f 46f
2:50pm 4.5ft 5s 5s 20 25 mph 1029.2mb 48f 46f
1:50pm 4.5ft 5s 5s 20 25 mph 1028.8mb 48f 46f
12:50pm 4.5ft 5s 4s 20 25 mph 1028.8mb 48f 45f
11:50am 4ft 4s 4s 20 22 mph 1029.1mb 48f 45f
10:50am 3.5ft 5s 4s 18 22 mph 1029.5mb 48f 44f
9:50am 3.5ft 4s 4s 20 22 mph 1029.5mb 48f 44f
8:50am 3.5ft 4s 4s 18 22 mph 1029.1mb 48f 44f
7:50am 3ft 4s 4s 18 22 mph 1028.5mb 48f 43f
6:50am 2.5ft 4s 4s 18 22 mph 1027.9mb 47f 42f
5:50am 2.5ft 4s 4s 18 22 mph 1027.4mb 47f 42f
4:50am 2.5ft 3s 4s 18 22 mph 1026.9mb 47f 41f
3:50am 1.6ft 9s 4s 16 18 mph 1026.6mb 47f 42f
2:50am 1.3ft 9s 6s 7 11 mph 1026.7mb 47f 42f
1:50am 1.3ft 10s 6s 7 11 mph 1026.4mb 47f 41f
12:50am 1.3ft 9s 5s 7 9 mph 1026mb 47f 41f
Wed 12/12 11:50pm 1.3ft 10s 5s 9 13 mph 1025mb 47f 40f
10:50pm 1.6ft 10s 4s 4 7 mph 1025.1mb 47f 40f
9:50pm 1.6ft 10s 4s 4 7 mph 1024.9mb 47f 40f
8:50pm 2ft 10s 4s 9 13 mph 1024.4mb 47f 40f
7:50pm 2ft 10s 4s 11 13 mph 1024.3mb 48f 40f
6:50pm 2.5ft 9s 4s 13 18 mph 1023.5mb 48f 40f
5:50pm 2.5ft 10s 4s 13 20 mph 1022.5mb 48f 41f
4:50pm 2.5ft 4s 4s 16 18 mph 1021.7mb 48f 41f
3:50pm 2.5ft 11s 4s 13 20 mph 1020.7mb 48f 41f
2:50pm 2.5ft 11s 4s 16 20 mph 1020.6mb 48f 41f
1:50pm 2.5ft 10s 4s 9 13 mph 1020.2mb 48f 40f
12:50pm 3.5ft 5s 4s 13 18 mph 1020.2mb 48f 39f
11:50am 3.5ft 5s 4s 18 22 mph 1020mb 48f 40f
10:50am 4.5ft 5s 4s 20 25 mph 1019.9mb 48f 39f
9:50am 4ft 5s 4s 22 27 mph 1019.8mb 48f 39f
8:50am 4.5ft 5s 5s 22 27 mph 1018.9mb 48f 38f
7:50am 5ft 5s 5s 22 29 mph 1017.8mb 48f 38f
6:50am 4.5ft 5s 5s 25 29 mph 1017.1mb 48f 38f
5:50am 5ft 5s 5s 25 29 mph 1016.1mb 48f 38f
4:50am 4.5ft 5s 4s 27 31 mph 1015.3mb 48f 38f
3:50am 4.5ft 5s 5s 25 29 mph 1014.7mb 48f 38f
2:50am 4.5ft 10s 5s 22 29 mph 1014.5mb 48f 38f
1:50am 5ft 5s 5s 25 29 mph 1014.1mb 48f 39f
12:50am 5.5ft 5s 5s 25 29 mph 1013.6mb 48f 39f
Tue 12/11 11:50pm 5ft 9s 5s 25 31 mph 1013.5mb 48f 39f
10:50pm 5ft 9s 5s 22 27 mph 1013.5mb 48f 39f
8:50pm 3.5ft 9s 6s 20 22 mph 1013.6mb 48f 42f
12:50pm 4.5ft 10s 7s 13 16 mph 1017.3mb 48f 40f
11:50am 4.5ft 10s 7s 9 13 mph 1018.3mb 48f 40f
10:50am 5ft 10s 7s 9 11 mph 1020.2mb 48f 40f
9:50am 4.5ft 10s 6s 11 16 mph 1020.9mb 48f 39f
8:50am 4.5ft 10s 6s 16 18 mph 1020.1mb 48f 40f
7:50am 5ft 10s 6s 13 18 mph 1020.4mb 48f 40f
6:50am 4.5ft 10s 6s 9 13 mph 1020.9mb 48f 40f
5:50am 4.5ft 9s 6s 9 13 mph 1021mb 48f 40f
4:50am 4.5ft 9s 6s 11 13 mph 1021mb 48f 39f